Terminal Aerodrome Forecast
Issued by NWS La Crosse, WI

Home | Current Version | Previous Version | Text Only | Print | Product List | Glossary On
Versions: 1 2 3 4 5 6 7 8 9 10 11 12 13 14 15 16 17 18 19 20 21 22 23 24 25 26 27 28 29 30 31 32 33 34 35 36
000
FTUS43 KARX 261137
TAFLSE
TAF
KLSE 261137Z 2612/2712 18012KT 4SM -SN OVC012
      TEMPO 2612/2614 3/4SM -SN OVC009
     FM261400 18010KT P6SM BKN009
     FM262000 32009KT 4SM -DZ BR OVC010
     FM262300 30006KT P6SM OVC015=

USA.gov is the U.S. government's official web portal to all federal, state and local government web resources and services.